Time;durP1;ratioP1;P1;durP2;ratioP2;P2;SDS_P1;SDS_P2;PMS_P1;PMS_P2;Temp;Humidity;BMP_temperature;BMP_pressure;BME280_temperature;BME280_humidity;BME280_pressure;Samples;Min_cycle;Max_cycle;Signal;HPM_P1;HPM_P2
2021/06/21 00:00:28;;;;;;;12.90;3.72;;;;;;;20.22;100.00;100537.94;1607115;87;21082;-89
2021/06/21 00:02:55;;;;;;;8.38;3.65;;;;;;;20.23;100.00;100536.43;1602754;88;21568;-89
2021/06/21 00:05:23;;;;;;;5.70;3.20;;;;;;;20.26;100.00;100537.88;1634705;86;21066;-89
2021/06/21 00:07:50;;;;;;;5.28;3.10;;;;;;;20.27;100.00;100534.24;1610176;87;21124;-89
2021/06/21 00:10:18;;;;;;;7.75;3.70;;;;;;;20.27;100.00;100539.02;1635182;86;21093;-89
2021/06/21 00:12:47;;;;;;;8.98;3.62;;;;;;;20.25;100.00;100532.27;1606101;87;21091;-89
2021/06/21 00:15:21;;;;;;;8.90;3.80;;;;;;;20.22;100.00;100529.50;1656092;85;21019;-89
2021/06/21 00:17:49;;;;;;;11.05;3.17;;;;;;;20.18;100.00;100533.00;1652183;85;21133;-91
2021/06/21 00:20:19;;;;;;;55.75;7.05;;;;;;;20.16;100.00;100536.84;1630623;87;21414;-91
2021/06/21 00:22:46;;;;;;;13.88;3.95;;;;;;;20.17;100.00;100534.52;1628520;86;21050;-86
2021/06/21 00:25:16;;;;;;;9.80;3.72;;;;;;;20.20;100.00;100538.10;1636375;87;21090;-86
2021/06/21 00:27:43;;;;;;;7.08;3.92;;;;;;;20.23;100.00;100540.39;1658704;85;20990;-93
2021/06/21 00:30:16;;;;;;;6.72;3.70;;;;;;;20.21;100.00;100537.62;1623636;86;21125;-88
2021/06/21 00:32:45;;;;;;;3.98;3.60;;;;;;;20.18;100.00;100538.29;1603849;87;21554;-92
2021/06/21 00:35:14;;;;;;;10.20;4.00;;;;;;;20.14;100.00;100543.63;1633375;86;21150;-92
2021/06/21 00:37:44;;;;;;;8.35;3.70;;;;;;;20.08;100.00;100546.97;1632249;86;21124;-91
2021/06/21 00:40:13;;;;;;;13.83;4.45;;;;;;;20.04;100.00;100544.38;1601734;87;21524;-88
2021/06/21 00:42:44;;;;;;;7.62;4.10;;;;;;;20.01;100.00;100545.56;1669089;84;21085;-86
2021/06/21 00:45:14;;;;;;;13.43;4.00;;;;;;;19.98;100.00;100539.82;1646794;84;21216;-87
2021/06/21 00:47:41;;;;;;;7.55;4.10;;;;;;;19.96;100.00;100536.53;1622770;84;21081;-91
2021/06/21 00:50:09;;;;;;;67.45;5.95;;;;;;;19.90;100.00;100537.25;1645951;84;21109;-86
2021/06/21 00:52:37;;;;;;;12.82;4.15;;;;;;;19.84;100.00;100542.23;1644392;84;21154;-87
2021/06/21 00:55:05;;;;;;;7.08;3.87;;;;;;;19.79;100.00;100544.56;1641453;84;21181;-89
2021/06/21 00:57:36;;;;;;;9.85;4.22;;;;;;;19.71;100.00;100541.98;1642656;86;21300;-91
2021/06/21 01:00:12;;;;;;;4.70;4.10;;;;;;;19.62;100.00;100542.56;1636371;84;20982;-89
2021/06/21 01:02:40;;;;;;;10.43;3.95;;;;;;;19.57;100.00;100537.48;1652995;84;21141;-87
2021/06/21 01:05:10;;;;;;;13.32;4.45;;;;;;;19.53;100.00;100544.42;1659031;84;21173;-86
2021/06/21 01:07:38;;;;;;;14.03;3.80;;;;;;;19.49;100.00;100547.11;1641231;86;21129;-88
2021/06/21 01:10:10;;;;;;;9.15;4.30;;;;;;;19.47;100.00;100557.53;1664902;84;21006;-86
2021/06/21 01:13:28;;;;;;;11.40;4.37;;;;;;;19.45;100.00;100552.40;1634653;84;21252;-89
2021/06/21 01:16:18;;;;;;;15.83;4.05;;;;;;;19.45;100.00;100560.32;1638579;84;21748;-89
2021/06/21 01:18:56;;;;;;;10.25;3.87;;;;;;;19.52;100.00;100555.17;1667918;84;21097;-87
2021/06/21 01:22:08;;;;;;;11.10;3.83;;;;;;;19.57;100.00;100562.05;1648036;84;21102;-92
2021/06/21 01:25:13;;;;;;;16.48;4.30;;;;;;;19.57;100.00;100561.25;1641036;85;21374;-89
2021/06/21 01:27:55;;;;;;;16.97;4.53;;;;;;;19.58;100.00;100553.66;1639576;85;21031;-91
2021/06/21 01:30:30;;;;;;;8.08;4.03;;;;;;;19.62;100.00;100561.53;1646961;85;21275;-87
2021/06/21 01:33:02;;;;;;;19.65;4.05;;;;;;;19.69;100.00;100556.70;1642097;84;21093;-89
2021/06/21 01:35:43;;;;;;;9.83;4.22;;;;;;;19.76;100.00;100559.44;1646510;84;21058;-92
2021/06/21 01:38:21;;;;;;;11.93;4.22;;;;;;;19.81;100.00;100555.78;1673772;84;21115;-91
2021/06/21 01:40:53;;;;;;;10.53;4.33;;;;;;;19.89;100.00;100558.87;1678610;83;21085;-88
2021/06/21 01:43:26;;;;;;;;;;;;;;;19.91;100.00;100552.11;1672222;83;21152;-92
2021/06/21 01:45:53;;;;;;;14.35;4.33;;;;;;;19.97;100.00;100552.70;1670427;82;20140;-91
2021/06/21 01:48:26;;;;;;;14.45;4.50;;;;;;;19.96;100.00;100549.22;1684579;83;21040;-87
2021/06/21 01:50:59;;;;;;;15.40;4.53;;;;;;;19.98;100.00;100543.78;1678916;83;21102;-90
2021/06/21 01:53:28;;;;;;;12.78;5.28;;;;;;;20.01;100.00;100546.89;1684108;83;21076;-87
2021/06/21 01:56:13;;;;;;;11.22;4.92;;;;;;;20.00;100.00;100544.41;1669771;83;21107;-88
2021/06/21 01:58:43;;;;;;;15.78;4.85;;;;;;;19.97;100.00;100545.59;1641952;84;21064;-91
2021/06/21 02:01:17;;;;;;;13.60;5.22;;;;;;;19.91;100.00;100544.18;1660715;84;21134;-92
2021/06/21 02:03:54;;;;;;;10.68;5.30;;;;;;;19.85;100.00;100545.20;1678067;84;21177;-88
2021/06/21 02:06:35;;;;;;;;;;;;;;;;;;;;;
2021/06/21 02:08:59;;;;;;;20.43;6.10;;;;;;;19.76;100.00;100544.09;1658643;84;22357;-90
2021/06/21 02:11:29;;;;;;;14.75;5.60;;;;;;;19.70;100.00;100545.14;1640562;84;21033;-86
2021/06/21 02:13:56;;;;;;;21.10;6.15;;;;;;;19.66;100.00;100541.20;1670353;83;21085;-88
2021/06/21 02:16:26;;;;;;;17.48;5.45;;;;;;;19.67;100.00;100548.61;1708847;83;21233;-86
2021/06/21 02:18:54;;;;;;;22.25;5.78;;;;;;;19.71;100.00;100548.59;1690106;83;21191;-86
2021/06/21 02:21:22;;;;;;;23.95;5.35;;;;;;;19.79;100.00;100559.61;1684206;83;21454;-93
2021/06/21 02:23:52;;;;;;;21.68;5.70;;;;;;;19.88;100.00;100551.13;1676065;83;21132;-92
2021/06/21 02:26:22;;;;;;;31.05;6.47;;;;;;;19.98;100.00;100558.31;1705765;82;21030;-91
2021/06/21 02:28:59;;;;;;;30.30;6.17;;;;;;;20.06;100.00;100555.60;1683130;83;21137;-89
2021/06/21 02:31:27;;;;;;;25.10;6.33;;;;;;;20.14;100.00;100554.69;1697500;82;21156;-91
2021/06/21 02:33:54;;;;;;;41.65;6.78;;;;;;;20.20;100.00;100565.86;1694579;83;21093;-86
2021/06/21 02:36:22;;;;;;;36.53;6.50;;;;;;;20.25;100.00;100564.84;1705579;83;21075;-88
2021/06/21 02:38:51;;;;;;;43.75;7.42;;;;;;;20.31;100.00;100568.59;1688892;83;21034;-88
2021/06/21 02:41:18;;;;;;;44.40;7.55;;;;;;;20.35;100.00;100571.17;1690696;83;21675;-91
2021/06/21 02:43:45;;;;;;;43.20;6.95;;;;;;;20.39;100.00;100570.31;1674083;84;21069;-93
2021/06/21 02:46:12;;;;;;;43.78;7.95;;;;;;;20.42;100.00;100573.92;1686648;83;21038;-86
2021/06/21 02:48:40;;;;;;;43.23;8.18;;;;;;;20.47;100.00;100582.13;1692988;83;21670;-88
2021/06/21 02:51:12;;;;;;;43.92;8.08;;;;;;;20.48;100.00;100587.22;1619378;85;21144;-87
2021/06/21 02:54:09;;;;;;;43.20;7.90;;;;;;;20.47;100.00;100590.87;1659805;84;21119;-91
2021/06/21 02:57:16;;;;;;;48.55;7.95;;;;;;;20.48;100.00;100592.52;1652936;84;21540;-92
2021/06/21 02:59:44;;;;;;;41.85;7.85;;;;;;;20.47;100.00;100603.28;1610387;87;21602;-89
2021/06/21 03:02:15;;;;;;;73.00;9.20;;;;;;;20.43;100.00;100597.53;1622805;86;21026;-86
2021/06/21 03:04:44;;;;;;;61.53;9.00;;;;;;;20.45;100.00;100601.31;1614602;86;21138;-90
2021/06/21 03:07:15;;;;;;;63.68;9.23;;;;;;;20.48;100.00;100599.13;1618015;87;21114;-88
2021/06/21 03:09:48;;;;;;;44.80;8.70;;;;;;;20.53;100.00;100597.27;1660192;83;22451;-93
2021/06/21 03:12:26;;;;;;;60.23;10.23;;;;;;;20.57;100.00;100600.36;1640061;84;21101;-86
2021/06/21 03:14:53;;;;;;;48.00;9.15;;;;;;;20.59;100.00;100601.81;1645075;83;21193;-92
2021/06/21 03:17:24;;;;;;;60.50;9.75;;;;;;;20.63;100.00;100597.02;1686090;83;21172;-89
2021/06/21 03:22:23;;;;;;;66.77;11.10;;;;;;;20.74;100.00;100595.25;1634900;84;21573;-87
2021/06/21 03:24:56;;;;;;;59.25;10.78;;;;;;;20.81;100.00;100595.34;1645780;84;21049;-85
2021/06/21 03:27:34;;;;;;;74.58;10.98;;;;;;;20.85;100.00;100597.13;1627918;85;21015;-89
2021/06/21 03:30:09;;;;;;;74.92;10.90;;;;;;;20.87;100.00;100597.25;1650625;84;21076;-87
2021/06/21 03:32:38;;;;;;;89.90;11.03;;;;;;;20.92;100.00;100595.38;1684951;83;21327;-88
2021/06/21 03:35:09;;;;;;;85.12;13.08;;;;;;;20.94;100.00;100592.86;1630746;86;21021;-85
2021/06/21 03:37:37;;;;;;;70.78;12.37;;;;;;;20.96;100.00;100591.34;1637387;84;21111;-86
2021/06/21 03:40:07;;;;;;;83.87;13.35;;;;;;;20.98;100.00;100590.66;1639007;85;21125;-87
2021/06/21 03:42:35;;;;;;;107.85;13.18;;;;;;;21.02;100.00;100594.59;1677764;83;21708;-86
2021/06/21 03:45:05;;;;;;;102.80;14.98;;;;;;;21.08;100.00;100601.80;1653032;84;21149;-87
2021/06/21 03:47:32;;;;;;;103.27;14.83;;;;;;;21.17;100.00;100600.37;1657663;84;21027;-89
2021/06/21 03:49:59;;;;;;;107.15;15.70;;;;;;;21.24;100.00;100605.23;1674326;83;21035;-89
2021/06/21 03:52:26;;;;;;;123.18;15.80;;;;;;;21.31;100.00;100609.29;1661541;85;21037;-91
2021/06/21 03:55:07;;;;;;;101.33;15.45;;;;;;;21.37;100.00;100611.99;1666155;84;21025;-89
2021/06/21 03:57:38;;;;;;;115.77;16.35;;;;;;;21.39;100.00;100609.98;1651247;85;21116;-87
2021/06/21 04:00:16;;;;;;;87.15;14.30;;;;;;;21.40;100.00;100612.12;1676175;84;21073;-86
2021/06/21 04:02:44;;;;;;;87.55;14.20;;;;;;;21.41;100.00;100607.14;1672156;83;21034;-90
2021/06/21 04:05:11;;;;;;;103.65;14.95;;;;;;;21.43;100.00;100609.91;1675140;83;21029;-89
2021/06/21 04:07:40;;;;;;;104.43;14.68;;;;;;;21.49;100.00;100611.52;1632858;85;21034;-89
2021/06/21 04:10:11;;;;;;;114.20;16.35;;;;;;;21.53;100.00;100619.39;1621888;84;21337;-88
2021/06/21 04:12:39;;;;;;;87.33;14.75;;;;;;;21.59;100.00;100614.72;1657054;85;20995;-91
2021/06/21 04:15:10;;;;;;;94.07;14.80;;;;;;;21.67;100.00;100617.22;1661507;84;21097;-92
2021/06/21 04:17:39;;;;;;;111.95;16.20;;;;;;;21.71;100.00;100626.45;1671756;84;28110;-87
2021/06/21 04:20:09;;;;;;;116.67;16.52;;;;;;;21.75;100.00;100626.38;1647082;84;21068;-88
2021/06/21 04:22:41;;;;;;;115.57;15.58;;;;;;;21.80;100.00;100626.33;1651922;83;21139;-88
2021/06/21 04:25:12;;;;;;;125.85;15.63;;;;;;;21.85;100.00;100624.75;1653974;84;21086;-91
2021/06/21 04:27:40;;;;;;;113.97;15.65;;;;;;;21.89;100.00;100636.60;1628107;86;21078;-88
2021/06/21 04:30:11;;;;;;;135.28;17.32;;;;;;;21.94;100.00;100643.98;1676038;84;21107;-88
2021/06/21 04:32:39;;;;;;;113.37;16.55;;;;;;;21.98;100.00;100641.28;1664083;84;21101;-89
2021/06/21 04:35:12;;;;;;;151.72;18.65;;;;;;;22.04;100.00;100647.63;1619041;87;21241;-91
2021/06/21 04:37:39;;;;;;;137.72;18.77;;;;;;;22.08;100.00;100641.44;1625336;86;21146;-88
2021/06/21 04:40:10;;;;;;;145.00;17.65;;;;;;;22.11;100.00;100639.27;1637312;86;21043;-91
2021/06/21 04:42:38;;;;;;;152.80;19.57;;;;;;;22.15;100.00;100643.67;1626423;85;21046;-87
2021/06/21 04:45:07;;;;;;;141.28;18.17;;;;;;;22.22;100.00;100645.88;1649031;84;20962;-87
2021/06/21 04:47:34;;;;;;;129.68;17.45;;;;;;;22.28;100.00;100654.37;1653436;84;21309;-87
2021/06/21 04:50:08;;;;;;;142.47;18.70;;;;;;;22.30;100.00;100656.83;1631319;85;21308;-89
2021/06/21 04:52:38;;;;;;;148.95;19.15;;;;;;;22.31;100.00;100655.30;1625988;86;21373;-90
2021/06/21 04:55:08;;;;;;;149.55;17.50;;;;;;;22.32;100.00;100663.58;1615176;86;21055;-86
2021/06/21 04:57:36;;;;;;;145.30;18.77;;;;;;;22.33;100.00;100658.59;1638111;85;21149;-86
2021/06/21 05:00:08;;;;;;;130.00;17.77;;;;;;;22.34;100.00;100656.26;1657101;85;21919;-87
2021/06/21 05:02:35;;;;;;;146.75;19.10;;;;;;;22.37;100.00;100655.88;1636774;85;21081;-87
2021/06/21 05:05:05;;;;;;;125.42;19.35;;;;;;;22.40;100.00;100657.84;1629723;85;21322;-88
2021/06/21 05:07:32;;;;;;;127.17;17.87;;;;;;;22.42;100.00;100659.31;1657091;82;21094;-89
2021/06/21 05:10:00;;;;;;;166.30;28.38;;;;;;;22.50;100.00;100663.64;1655101;84;20991;-90
2021/06/21 05:12:29;;;;;;;211.80;57.13;;;;;;;22.57;100.00;100668.48;1659730;84;21884;-89
2021/06/21 05:15:11;;;;;;;382.53;109.03;;;;;;;22.65;100.00;100673.65;1636083;85;21123;-90
2021/06/21 05:17:42;;;;;;;369.50;86.95;;;;;;;22.73;100.00;100670.53;1602686;86;21081;-86
2021/06/21 05:20:11;;;;;;;195.87;41.70;;;;;;;22.80;100.00;100667.41;1668794;84;21094;-89
2021/06/21 05:22:39;;;;;;;222.17;110.97;;;;;;;22.85;100.00;100669.80;1695862;82;21529;-86
2021/06/21 05:25:07;;;;;;;208.43;63.50;;;;;;;22.87;100.00;100665.64;1683633;84;21814;-82
2021/06/21 05:27:35;;;;;;;146.47;27.05;;;;;;;22.90;100.00;100661.25;1655344;84;21077;-88
2021/06/21 05:30:05;;;;;;;143.25;20.25;;;;;;;22.93;100.00;100662.68;1686202;83;21344;-85
2021/06/21 05:32:32;;;;;;;133.45;20.88;;;;;;;22.96;100.00;100658.31;1671816;83;21070;-86
2021/06/21 05:34:59;;;;;;;114.12;18.90;;;;;;;23.00;100.00;100661.72;1675723;83;21066;-81
2021/06/21 05:37:26;;;;;;;130.37;17.80;;;;;;;23.05;100.00;100662.95;1652876;84;21258;-83
2021/06/21 05:39:53;;;;;;;97.67;15.95;;;;;;;23.07;100.00;100666.23;1679259;83;21101;-85
2021/06/21 05:42:19;;;;;;;117.42;18.12;;;;;;;23.08;100.00;100671.86;1659507;83;21050;-88
2021/06/21 05:44:47;;;;;;;106.65;16.65;;;;;;;23.08;100.00;100676.65;1679350;83;21217;-84
2021/06/21 05:47:18;;;;;;;116.25;17.52;;;;;;;23.13;100.00;100673.41;1666189;84;21093;-84
2021/06/21 05:49:43;;;;;;;114.60;17.10;;;;;;;23.18;100.00;100677.66;1690500;83;21198;-86
2021/06/21 05:52:11;;;;;;;113.00;16.70;;;;;;;23.22;100.00;100681.55;1665948;83;21136;-87
2021/06/21 05:54:38;;;;;;;94.32;14.50;;;;;;;23.25;100.00;100683.83;1700123;83;21127;-90
2021/06/21 05:57:06;;;;;;;127.55;17.07;;;;;;;23.28;100.00;100686.06;1683962;83;21616;-85
2021/06/21 05:59:33;;;;;;;116.70;16.87;;;;;;;23.30;100.00;100683.23;1656163;84;21165;-85
2021/06/21 06:02:01;;;;;;;121.05;15.80;;;;;;;23.34;100.00;100690.30;1679764;84;21600;-84
2021/06/21 06:04:28;;;;;;;122.75;17.37;;;;;;;23.39;100.00;100693.17;1689841;84;21094;-85
2021/06/21 06:06:55;;;;;;;117.33;16.12;;;;;;;23.45;100.00;100698.52;1676180;83;21068;-86
2021/06/21 06:09:22;;;;;;;94.90;16.82;;;;;;;23.51;100.00;100690.76;1644812;85;21074;-85
2021/06/21 06:11:51;;;;;;;102.55;15.98;;;;;;;23.57;100.00;100694.77;1667624;84;21403;-86
2021/06/21 06:14:18;;;;;;;127.38;16.77;;;;;;;23.63;100.00;100699.28;1671712;84;21230;-84
2021/06/21 06:16:45;;;;;;;135.43;18.37;;;;;;;23.68;100.00;100704.00;1663553;84;21573;-87
2021/06/21 06:19:13;;;;;;;132.90;17.42;;;;;;;23.73;100.00;100693.58;1673600;84;21034;-90
2021/06/21 06:21:42;;;;;;;129.42;17.87;;;;;;;23.78;100.00;100700.46;1674664;85;21595;-84
2021/06/21 06:24:09;;;;;;;127.50;16.57;;;;;;;23.85;100.00;100703.12;1617292;85;21069;-84
2021/06/21 06:26:36;;;;;;;130.67;17.62;;;;;;;23.90;100.00;100699.86;1699146;83;21166;-92
2021/06/21 06:29:04;;;;;;;129.00;18.73;;;;;;;23.95;100.00;100705.44;1684920;83;21228;-88
2021/06/21 06:31:31;;;;;;;126.38;16.67;;;;;;;24.01;100.00;100712.59;1689906;83;21129;-94
2021/06/21 06:33:59;;;;;;;136.35;17.57;;;;;;;24.08;100.00;100703.28;1678300;83;21044;-95
2021/06/21 06:36:26;;;;;;;135.78;17.52;;;;;;;24.20;100.00;100703.50;1659652;83;21093;-93
2021/06/21 06:38:53;;;;;;;131.72;15.58;;;;;;;24.30;100.00;100700.45;1688653;83;21648;-91
2021/06/21 06:41:21;;;;;;;92.20;13.62;;;;;;;24.38;100.00;100702.91;1659561;84;21064;-90
2021/06/21 06:43:48;;;;;;;115.10;16.97;;;;;;;24.46;100.00;100707.19;1659588;84;21584;-92
2021/06/21 06:46:15;;;;;;;102.87;16.37;;;;;;;24.55;100.00;100705.47;1641811;86;21292;-90
2021/06/21 06:48:43;;;;;;;129.90;17.70;;;;;;;24.64;100.00;100708.72;1646340;85;21588;-90
2021/06/21 06:51:09;;;;;;;120.35;15.75;;;;;;;24.68;100.00;100703.31;1649649;83;21094;-91
2021/06/21 06:53:43;;;;;;;99.58;15.65;;;;;;;24.75;100.00;100703.31;1651132;84;20982;-91
2021/06/21 06:58:56;;;;;;;112.32;16.48;;;;;;;24.88;100.00;100705.94;1654724;84;21072;-89
2021/06/21 07:01:25;;;;;;;118.35;15.10;;;;;;;24.97;100.00;100705.22;1649541;83;21133;-90
2021/06/21 07:03:52;;;;;;;108.42;16.70;;;;;;;25.00;100.00;100707.97;1633712;84;22245;-91
2021/06/21 07:06:19;;;;;;;108.07;14.87;;;;;;;25.04;100.00;100713.17;1654197;84;21103;-92
2021/06/21 07:08:49;;;;;;;129.03;17.55;;;;;;;25.08;100.00;100709.60;1682745;83;21267;-88
2021/06/21 07:11:20;;;;;;;81.70;13.72;;;;;;;25.14;100.00;100704.23;1638836;86;21154;-90
2021/06/21 07:13:49;;;;;;;104.92;16.70;;;;;;;25.23;100.00;100708.83;1584967;87;21069;-91
2021/06/21 07:16:18;;;;;;;108.75;15.30;;;;;;;25.34;100.00;100700.16;1633423;86;21137;-91
2021/06/21 07:18:45;;;;;;;83.65;13.65;;;;;;;25.42;100.00;100700.48;1626758;86;21110;-92
2021/06/21 07:21:15;;;;;;;107.58;15.70;;;;;;;25.50;100.00;100698.91;1663656;84;21113;-91
2021/06/21 07:23:44;;;;;;;105.70;16.75;;;;;;;25.53;100.00;100704.32;1639849;84;21096;-91
2021/06/21 07:26:12;;;;;;;125.82;16.27;;;;;;;25.59;100.00;100700.00;1660388;84;20969;-91
2021/06/21 07:28:40;;;;;;;100.33;14.25;;;;;;;25.69;100.00;100704.33;1652454;82;21093;-90
2021/06/21 07:31:07;;;;;;;108.80;14.90;;;;;;;25.79;100.00;100703.36;1678235;84;21227;-89
2021/06/21 07:33:34;;;;;;;96.15;13.75;;;;;;;25.88;100.00;100708.44;1642071;85;21654;-88
2021/06/21 07:36:02;;;;;;;90.53;14.58;;;;;;;25.93;100.00;100708.59;1649415;84;21169;-89
2021/06/21 07:41:13;;;;;;;;;;;;;;;;;;;;;
2021/06/21 07:43:40;;;;;;;105.40;14.43;;;;;;;26.08;100.00;100715.80;1637086;86;20975;-91
2021/06/21 07:46:12;;;;;;;88.62;14.90;;;;;;;26.12;100.00;100714.35;1633574;86;21599;-91
2021/06/21 07:48:41;;;;;;;102.85;13.72;;;;;;;26.18;100.00;100715.34;1666217;83;21584;-89
2021/06/21 07:51:13;;;;;;;90.83;14.83;;;;;;;26.20;100.00;100715.92;1630397;86;21073;-90
2021/06/21 07:53:53;;;;;;;;;;;;;;;;;;;;;
2021/06/21 07:56:17;;;;;;;111.72;15.60;;;;;;;26.22;100.00;100714.39;1602998;84;21607;-90
2021/06/21 07:59:09;;;;;;;92.70;14.50;;;;;;;26.26;100.00;100715.58;1632197;86;21219;-91
2021/06/21 08:01:49;;;;;;;115.08;14.75;;;;;;;26.35;100.00;100717.48;1600700;86;26588;-90
2021/06/21 08:04:39;;;;;;;93.80;14.47;;;;;;;26.46;100.00;100718.08;1594083;86;21157;-90
2021/06/21 08:06:59;;;;;;;;;;;;;;;26.59;100.00;100721.16;1657389;83;21878;-89
2021/06/21 08:09:26;;;;;;;115.20;15.90;;;;;;;26.66;100.00;100723.24;1702491;82;20240;-91
2021/06/21 08:12:01;;;;;;;111.20;16.30;;;;;;;26.75;100.00;100725.94;1634916;86;21111;-89
2021/06/21 08:14:43;;;;;;;101.20;14.75;;;;;;;26.85;100.00;100721.97;1616009;87;21103;-90
2021/06/21 08:17:24;;;;;;;;;;;;;;;;;;;;;
2021/06/21 08:19:53;;;;;;;107.87;14.60;;;;;;;27.13;100.00;100722.80;1533888;89;21151;-90
2021/06/21 08:22:33;;;;;;;;;;;;;;;;;;;;;
2021/06/21 08:28:49;;;;;;;;;;;;;;;;;;;;;
2021/06/21 08:30:57;;;;;;;94.25;15.72;;;;;;;27.33;100.00;100719.89;1223116;114;21290;-90
2021/06/21 08:33:32;;;;;;;104.95;16.70;;;;;;;27.43;100.00;100712.70;1198078;113;21379;-87
2021/06/21 08:36:10;;;;;;;90.67;14.18;;;;;;;27.49;100.00;100709.11;1297719;108;21212;-89
2021/06/21 08:38:45;;;;;;;;;;;;;;;;;;;;;
2021/06/21 08:41:07;;;;;;;126.02;17.10;;;;;;;27.63;100.00;100710.30;1344636;102;21787;-88
2021/06/21 08:43:40;;;;;;;78.60;13.37;;;;;;;27.66;100.00;100703.97;1428248;98;21190;-88
2021/06/21 08:46:18;;;;;;;115.45;15.93;;;;;;;27.76;100.00;100713.31;1525530;92;21079;-89
2021/06/21 08:49:15;;;;;;;104.20;15.80;;;;;;;27.91;100.00;100711.02;1538898;92;21128;-91
2021/06/21 08:51:44;;;;;;;;;;;;;;;;;;;;;
2021/06/21 08:54:12;;;;;;;108.95;16.37;;;;;;;28.16;100.00;100714.08;1415578;98;21236;-91
2021/06/21 08:56:49;;;;;;;100.95;15.32;;;;;;;28.26;97.85;100713.50;1403459;98;21692;-88
2021/06/21 08:59:18;;;;;;;95.07;14.83;;;;;;;28.34;96.31;100716.64;1461147;96;21558;-88
2021/06/21 12:00:09;;;;;;;;;;;;;;;;;;;;;
2021/06/21 13:16:19;;;;;;;;;;;;;;;;;;;;;
2021/06/21 15:18:42;;;;;;;14.40;3.77;;;;;;;32.96;46.07;100628.61;1683469;84;21174;-91
2021/06/21 15:21:11;;;;;;;16.37;3.35;;;;;;;32.62;48.13;100630.34;1728767;82;21665;-87
